createdAt,value
2022-11-10T00:00:50.275Z,10.10
2022-11-10T00:03:37.964Z,9.98
2022-11-10T00:06:23.944Z,9.96
2022-11-10T00:09:10.692Z,9.95
2022-11-10T00:11:57.082Z,9.90
2022-11-10T00:15:01.515Z,9.78
2022-11-10T00:18:00.324Z,9.66
2022-11-10T00:20:47.806Z,9.64
2022-11-10T00:23:34.425Z,9.67
2022-11-10T00:26:31.970Z,9.72
2022-11-10T00:29:18.061Z,9.70
2022-11-10T00:32:04.143Z,9.60
2022-11-10T00:34:50.287Z,9.58
2022-11-10T00:37:36.126Z,9.71
2022-11-10T00:40:22.081Z,9.69
2022-11-10T00:43:07.861Z,9.72
2022-11-10T00:45:54.251Z,9.77
2022-11-10T00:48:40.303Z,9.83
2022-11-10T00:51:29.220Z,9.80
2022-11-10T00:54:15.452Z,9.75
2022-11-10T00:57:01.280Z,9.72
2022-11-10T00:59:47.256Z,9.69
2022-11-10T01:02:33.045Z,9.64
2022-11-10T01:05:19.211Z,9.62
2022-11-10T01:08:05.556Z,9.65
2022-11-10T01:10:51.227Z,9.64
2022-11-10T01:13:37.495Z,9.58
2022-11-10T01:16:31.843Z,9.52
2022-11-10T01:19:17.714Z,9.48
2022-11-10T01:22:03.633Z,9.45
2022-11-10T01:24:49.631Z,9.38
2022-11-10T01:27:35.691Z,9.32
2022-11-10T01:30:21.593Z,9.31
2022-11-10T01:33:07.585Z,9.27
2022-11-10T01:35:53.765Z,9.24
2022-11-10T01:38:42.236Z,9.20
2022-11-10T01:41:28.957Z,9.18
2022-11-10T01:44:24.289Z,9.16
2022-11-10T01:47:10.540Z,9.15
2022-11-10T01:49:56.940Z,9.16
2022-11-10T01:52:46.658Z,9.14
2022-11-10T01:55:34.567Z,9.13
2022-11-10T01:58:28.283Z,9.04
2022-11-10T02:01:15.049Z,9.01
2022-11-10T02:04:05.162Z,8.96
2022-11-10T02:06:51.972Z,8.89
2022-11-10T02:09:37.983Z,8.86
2022-11-10T02:12:44.730Z,8.86
2022-11-10T02:15:30.867Z,8.85
2022-11-10T02:18:16.956Z,8.84
2022-11-10T02:21:09.828Z,8.86
2022-11-10T02:23:55.975Z,8.94
2022-11-10T02:26:48.681Z,8.86
2022-11-10T02:29:34.499Z,8.82
2022-11-10T02:32:20.300Z,8.79
2022-11-10T02:35:07.229Z,8.85
2022-11-10T02:37:53.386Z,8.87
2022-11-10T02:40:39.558Z,8.97
2022-11-10T02:43:25.922Z,9.08
2022-11-10T02:46:12.068Z,9.12
2022-11-10T02:48:58.198Z,9.14
2022-11-10T02:51:44.249Z,9.14
2022-11-10T02:54:32.345Z,9.06
2022-11-10T02:57:18.484Z,9.07
2022-11-10T03:00:06.327Z,9.01
2022-11-10T03:03:01.477Z,8.99
2022-11-10T03:05:47.421Z,8.93
2022-11-10T03:08:33.536Z,8.93
2022-11-10T03:11:20.736Z,8.84
2022-11-10T03:14:06.894Z,8.83
2022-11-10T03:16:52.968Z,8.85
2022-11-10T03:19:38.880Z,8.79
2022-11-10T03:22:25.007Z,8.73
2022-11-10T03:25:12.197Z,8.65
2022-11-10T03:27:58.231Z,8.59
2022-11-10T03:30:44.376Z,8.55
2022-11-10T03:33:33.271Z,8.53
2022-11-10T03:36:20.483Z,8.46
2022-11-10T03:39:10.632Z,8.44
2022-11-10T03:41:56.625Z,8.41
2022-11-10T03:44:44.839Z,8.37
2022-11-10T03:47:30.776Z,8.36
2022-11-10T03:50:17.897Z,8.33
2022-11-10T03:53:06.129Z,8.30
2022-11-10T03:55:53.548Z,8.29
2022-11-10T03:58:39.577Z,8.20
2022-11-10T04:01:25.623Z,8.27
2022-11-10T04:04:31.296Z,8.21
2022-11-10T04:07:35.966Z,8.13
2022-11-10T04:10:21.859Z,8.16
2022-11-10T04:13:26.203Z,8.17
2022-11-10T04:16:13.043Z,8.15
2022-11-10T04:18:59.350Z,8.13
2022-11-10T04:21:45.543Z,8.13
2022-11-10T04:24:32.024Z,8.16
2022-11-10T04:27:18.865Z,8.19
2022-11-10T04:30:06.730Z,8.20
2022-11-10T04:32:54.173Z,8.24
2022-11-10T04:35:40.997Z,8.29
2022-11-10T04:38:27.639Z,8.27
2022-11-10T04:41:31.929Z,8.31
2022-11-10T04:44:18.335Z,8.35
2022-11-10T04:47:09.037Z,8.39
2022-11-10T04:49:58.782Z,8.44
2022-11-10T04:52:44.533Z,8.46
2022-11-10T04:55:30.772Z,8.50
2022-11-10T04:58:18.723Z,8.50
2022-11-10T05:01:05.825Z,8.50
2022-11-10T05:03:52.210Z,8.52
2022-11-10T05:06:39.871Z,8.54
2022-11-10T05:09:25.774Z,8.55
2022-11-10T05:12:11.681Z,8.56
2022-11-10T05:14:57.708Z,8.55
2022-11-10T05:17:43.788Z,8.46
2022-11-10T05:20:30.327Z,8.44
2022-11-10T05:23:35.077Z,8.49
2022-11-10T05:26:20.884Z,8.51
2022-11-10T05:29:06.605Z,8.49
2022-11-10T05:31:53.527Z,8.46
2022-11-10T05:34:39.462Z,8.44
2022-11-10T05:37:26.985Z,8.31
2022-11-10T05:40:12.882Z,8.23
2022-11-10T05:43:00.793Z,8.17
2022-11-10T05:45:46.866Z,8.14
2022-11-10T05:48:33.636Z,8.14
2022-11-10T05:51:19.417Z,8.14
2022-11-10T05:54:05.673Z,8.13
2022-11-10T05:56:51.809Z,8.14
2022-11-10T05:59:37.895Z,8.11
2022-11-10T06:02:23.791Z,8.17
2022-11-10T06:05:10.490Z,8.10
2022-11-10T06:07:57.280Z,8.03
2022-11-10T06:10:43.064Z,7.95
2022-11-10T06:13:29.455Z,7.88
2022-11-10T06:16:15.579Z,7.83
2022-11-10T06:19:02.047Z,7.81
2022-11-10T06:21:48.289Z,7.78
2022-11-10T06:24:34.172Z,7.78
2022-11-10T06:27:20.480Z,7.82
2022-11-10T06:30:07.113Z,7.80
2022-11-10T06:32:53.559Z,7.83
2022-11-10T06:35:39.725Z,7.87
2022-11-10T06:38:25.373Z,7.96
2022-11-10T06:41:11.628Z,8.05
2022-11-10T06:43:57.822Z,8.11
2022-11-10T06:46:44.402Z,8.10
2022-11-10T06:49:30.398Z,8.16
2022-11-10T06:52:16.790Z,8.16
2022-11-10T06:55:02.951Z,8.17
2022-11-10T06:57:48.943Z,8.22
2022-11-10T07:00:35.247Z,8.22
2022-11-10T07:03:21.512Z,8.28
2022-11-10T07:06:08.146Z,8.27
2022-11-10T07:08:54.028Z,8.29
2022-11-10T07:11:40.170Z,8.36
2022-11-10T07:14:25.955Z,8.37
2022-11-10T07:17:11.909Z,8.41
2022-11-10T07:19:58.130Z,8.43
2022-11-10T07:22:44.118Z,8.43
2022-11-10T07:25:33.058Z,8.44
2022-11-10T07:28:18.973Z,8.47
2022-11-10T07:31:05.201Z,8.51
2022-11-10T07:33:54.517Z,8.51
2022-11-10T07:36:40.807Z,8.55
2022-11-10T07:39:26.741Z,8.61
2022-11-10T07:42:12.621Z,8.64
2022-11-10T07:44:58.554Z,8.70
2022-11-10T07:47:45.020Z,8.72
2022-11-10T07:50:31.119Z,8.73
2022-11-10T07:53:22.922Z,8.79
2022-11-10T07:56:09.760Z,8.83
2022-11-10T07:58:55.752Z,8.84
2022-11-10T08:01:41.913Z,8.88
2022-11-10T08:04:29.266Z,8.92
2022-11-10T08:07:15.040Z,8.97
2022-11-10T08:10:00.798Z,9.02
2022-11-10T08:12:46.475Z,9.01
2022-11-10T08:15:34.375Z,9.05
2022-11-10T08:18:23.334Z,9.07
2022-11-10T08:21:09.534Z,9.07
2022-11-10T08:23:55.412Z,9.15
2022-11-10T08:26:41.215Z,9.20
2022-11-10T08:29:27.438Z,9.26
2022-11-10T08:32:13.489Z,9.38
2022-11-10T08:34:59.648Z,9.44
2022-11-10T08:37:45.629Z,9.51
2022-11-10T08:40:31.406Z,9.61
2022-11-10T08:43:18.527Z,9.68
2022-11-10T08:46:04.362Z,9.79
2022-11-10T08:48:50.567Z,9.81
2022-11-10T08:51:39.207Z,9.94
2022-11-10T08:54:26.932Z,10.08
2022-11-10T08:57:12.944Z,10.09
2022-11-10T08:59:59.242Z,10.22
2022-11-10T09:02:44.936Z,10.51
2022-11-10T09:05:35.999Z,10.51
2022-11-10T09:08:21.816Z,10.81
2022-11-10T09:11:08.072Z,11.12
2022-11-10T09:13:53.914Z,11.02
2022-11-10T09:16:39.806Z,10.74
2022-11-10T09:19:26.180Z,10.52
2022-11-10T09:22:12.407Z,10.42
2022-11-10T09:24:59.075Z,10.25
2022-11-10T09:27:45.256Z,10.14
2022-11-10T09:30:32.451Z,10.12
2022-11-10T09:33:18.453Z,10.17
2022-11-10T09:36:04.723Z,10.49
2022-11-10T09:38:50.462Z,10.51
2022-11-10T09:41:41.031Z,10.52
2022-11-10T09:44:39.982Z,10.68
2022-11-10T09:47:56.679Z,10.92
2022-11-10T09:50:52.858Z,11.02
2022-11-10T09:53:48.036Z,11.10
2022-11-10T09:56:38.595Z,11.44
2022-11-10T09:59:32.417Z,11.12
2022-11-10T10:02:33.917Z,11.31
2022-11-10T10:05:46.711Z,11.74
2022-11-10T10:08:57.752Z,11.83
2022-11-10T10:11:50.433Z,11.74
2022-11-10T10:15:03.015Z,11.60
2022-11-10T10:17:53.460Z,11.59
2022-11-10T10:20:39.767Z,11.61
2022-11-10T10:24:08.627Z,11.54
2022-11-10T10:26:58.073Z,11.54
2022-11-10T10:29:46.028Z,11.37
2022-11-10T10:32:32.761Z,11.44
2022-11-10T10:35:19.451Z,11.45
2022-11-10T10:38:13.180Z,11.09
2022-11-10T10:41:10.735Z,11.07
2022-11-10T10:43:59.595Z,11.38
2022-11-10T10:46:50.457Z,11.28
2022-11-10T10:49:39.227Z,11.33
2022-11-10T10:52:26.863Z,11.34
2022-11-10T10:55:14.409Z,11.44
2022-11-10T10:58:06.228Z,11.66
2022-11-10T11:00:56.623Z,11.84
2022-11-10T11:03:42.706Z,11.70
2022-11-10T11:06:33.923Z,11.90
2022-11-10T11:09:27.953Z,12.01
2022-11-10T11:12:27.647Z,11.98
2022-11-10T11:15:28.490Z,11.85
2022-11-10T11:18:17.945Z,11.92
2022-11-10T11:21:33.908Z,11.96
2022-11-10T11:24:34.402Z,11.86
2022-11-10T11:27:41.618Z,11.93
2022-11-10T11:30:58.170Z,12.08
2022-11-10T11:34:10.123Z,12.12
2022-11-10T11:37:11.147Z,12.21
2022-11-10T11:40:23.683Z,12.23
2022-11-10T11:43:20.625Z,12.35
2022-11-10T11:46:18.817Z,12.52
2022-11-10T11:49:35.611Z,12.52
2022-11-10T11:52:39.198Z,12.79
2022-11-10T11:55:44.334Z,12.95
2022-11-10T11:58:42.047Z,12.72
2022-11-10T12:01:37.300Z,12.62
2022-11-10T12:04:42.248Z,12.41
2022-11-10T12:07:45.314Z,12.58
2022-11-10T12:10:46.279Z,12.28
2022-11-10T12:14:05.129Z,12.51
2022-11-10T12:17:06.386Z,12.47
2022-11-10T12:20:26.619Z,12.21
2022-11-10T12:23:31.160Z,12.14
2022-11-10T12:26:23.402Z,12.03
2022-11-10T12:29:30.691Z,12.06
2022-11-10T12:32:28.519Z,11.86
2022-11-10T12:35:26.326Z,11.55
2022-11-10T12:38:17.802Z,11.46
2022-11-10T12:41:18.635Z,11.64
2022-11-10T12:44:32.472Z,12.00
2022-11-10T12:47:21.224Z,12.13
2022-11-10T12:50:16.678Z,12.14
2022-11-10T12:53:37.228Z,12.32
2022-11-10T12:56:39.599Z,12.48
2022-11-10T12:59:30.395Z,12.32
2022-11-10T13:02:16.452Z,12.53
2022-11-10T13:05:41.080Z,12.82
2022-11-10T13:08:30.286Z,12.97
2022-11-10T13:11:16.202Z,13.03
2022-11-10T13:14:22.182Z,12.44
2022-11-10T13:17:09.706Z,12.22
2022-11-10T13:20:09.414Z,11.97
2022-11-10T13:23:30.350Z,11.93
2022-11-10T13:26:44.507Z,12.01
2022-11-10T13:29:42.805Z,11.84
2022-11-10T13:32:35.405Z,11.96
2022-11-10T13:35:30.718Z,12.09
2022-11-10T13:38:44.498Z,12.17
2022-11-10T13:41:34.912Z,12.29
2022-11-10T13:44:25.569Z,12.38
2022-11-10T13:47:39.463Z,12.53
2022-11-10T13:50:41.727Z,12.65
2022-11-10T13:53:35.366Z,12.47
2022-11-10T13:56:21.105Z,12.38
2022-11-10T13:59:22.944Z,12.42
2022-11-10T14:02:34.235Z,12.44
2022-11-10T14:05:29.710Z,12.25
2022-11-10T14:08:23.804Z,12.23
2022-11-10T14:11:18.755Z,12.17
2022-11-10T14:14:22.071Z,11.99
2022-11-10T14:17:29.683Z,11.87
2022-11-10T14:20:27.565Z,11.86
2022-11-10T14:23:31.826Z,11.89
2022-11-10T14:26:38.867Z,11.87
2022-11-10T14:29:32.304Z,11.88
2022-11-10T14:32:22.371Z,11.73
2022-11-10T14:35:20.030Z,11.72
2022-11-10T14:38:17.929Z,11.63
2022-11-10T14:41:07.585Z,11.60
2022-11-10T14:44:06.156Z,11.42
2022-11-10T14:46:52.908Z,11.30
2022-11-10T14:49:39.305Z,11.15
2022-11-10T14:52:25.502Z,10.97
2022-11-10T14:55:21.854Z,10.93
2022-11-10T14:58:16.235Z,10.91
2022-11-10T15:01:07.244Z,10.75
2022-11-10T15:03:53.929Z,10.65
2022-11-10T15:06:45.819Z,10.72
2022-11-10T15:09:33.355Z,10.77
2022-11-10T15:12:22.935Z,10.68
2022-11-10T15:15:20.338Z,10.51
2022-11-10T15:18:24.113Z,10.38
2022-11-10T15:21:12.683Z,10.23
2022-11-10T15:24:02.690Z,10.13
2022-11-10T15:26:48.684Z,10.08
2022-11-10T15:29:34.718Z,9.99
2022-11-10T15:32:23.630Z,9.85
2022-11-10T15:35:31.294Z,9.91
2022-11-10T15:38:20.928Z,9.96
2022-11-10T15:41:13.368Z,9.97
2022-11-10T15:44:21.104Z,9.96
2022-11-10T15:47:12.527Z,9.99
2022-11-10T15:50:00.407Z,9.97
2022-11-10T15:52:46.450Z,10.03
2022-11-10T15:55:34.595Z,9.98
2022-11-10T15:58:22.766Z,9.99
2022-11-10T16:01:13.237Z,9.92
2022-11-10T16:03:59.531Z,9.74
2022-11-10T16:06:46.044Z,9.75
2022-11-10T16:09:31.842Z,9.57
2022-11-10T16:12:21.085Z,9.62
2022-11-10T16:15:17.133Z,9.43
2022-11-10T16:18:03.228Z,9.43
2022-11-10T16:20:51.264Z,9.36
2022-11-10T16:23:37.430Z,9.30
2022-11-10T16:26:26.307Z,9.30
2022-11-10T16:29:15.559Z,9.28
2022-11-10T16:32:02.023Z,9.20
2022-11-10T16:34:47.631Z,9.15
2022-11-10T16:37:35.069Z,9.13
2022-11-10T16:40:24.272Z,8.97
2022-11-10T16:43:18.081Z,8.97
2022-11-10T16:46:13.850Z,8.88
2022-11-10T16:49:01.646Z,8.98
2022-11-10T16:51:49.258Z,8.91
2022-11-10T16:54:35.242Z,8.97
2022-11-10T16:57:21.550Z,9.04
2022-11-10T17:00:08.238Z,9.01
2022-11-10T17:03:07.713Z,8.82
2022-11-10T17:05:54.409Z,8.77
2022-11-10T17:08:42.012Z,8.74
2022-11-10T17:11:27.911Z,8.60
2022-11-10T17:14:14.516Z,8.59
2022-11-10T17:17:00.270Z,8.68
2022-11-10T17:19:48.781Z,8.60
2022-11-10T17:22:36.654Z,8.62
2022-11-10T17:25:28.753Z,8.54
2022-11-10T17:28:18.077Z,8.55
2022-11-10T17:31:04.564Z,8.58
2022-11-10T17:33:50.558Z,8.69
2022-11-10T17:36:36.996Z,8.58
2022-11-10T17:39:23.317Z,8.48
2022-11-10T17:42:13.727Z,8.46
2022-11-10T17:45:00.081Z,8.42
2022-11-10T17:47:47.078Z,8.36
2022-11-10T17:50:33.981Z,8.33
2022-11-10T17:53:28.357Z,8.48
2022-11-10T17:56:14.384Z,8.47
2022-11-10T17:59:00.580Z,8.38
2022-11-10T18:01:46.629Z,8.37
2022-11-10T18:04:32.399Z,8.30
2022-11-10T18:07:18.483Z,8.46
2022-11-10T18:10:05.053Z,8.37
2022-11-10T18:12:51.106Z,8.37
2022-11-10T18:15:37.201Z,8.38
2022-11-10T18:18:23.387Z,8.22
2022-11-10T18:21:10.038Z,8.26
2022-11-10T18:23:57.095Z,8.29
2022-11-10T18:26:43.473Z,8.29
2022-11-10T18:29:29.190Z,8.26
2022-11-10T18:32:15.227Z,8.22
2022-11-10T18:35:01.390Z,8.18
2022-11-10T18:37:47.722Z,8.18
2022-11-10T18:40:34.184Z,8.12
2022-11-10T18:43:20.303Z,8.14
2022-11-10T18:46:06.922Z,8.12
2022-11-10T18:48:53.008Z,8.10
2022-11-10T18:51:38.884Z,8.13
2022-11-10T18:54:25.840Z,8.20
2022-11-10T18:57:13.376Z,8.25
2022-11-10T18:59:59.867Z,8.15
2022-11-10T19:02:46.033Z,8.14
2022-11-10T19:05:32.048Z,8.16
2022-11-10T19:08:18.199Z,8.11
2022-11-10T19:11:13.310Z,8.21
2022-11-10T19:14:02.597Z,8.19
2022-11-10T19:16:49.645Z,8.26
2022-11-10T19:19:37.365Z,8.24
2022-11-10T19:22:25.228Z,8.27
2022-11-10T19:25:11.682Z,8.18
2022-11-10T19:27:59.710Z,8.21
2022-11-10T19:30:46.009Z,8.24
2022-11-10T19:33:34.503Z,8.21
2022-11-10T19:36:23.518Z,8.25
2022-11-10T19:39:10.180Z,8.23
2022-11-10T19:41:56.424Z,8.20
2022-11-10T19:44:43.495Z,8.18
2022-11-10T19:47:32.313Z,8.19
2022-11-10T19:50:18.305Z,8.22
2022-11-10T19:53:04.011Z,8.18
2022-11-10T19:55:50.074Z,8.17
2022-11-10T19:58:37.967Z,8.24
2022-11-10T20:01:24.467Z,8.24
2022-11-10T20:04:12.518Z,8.16
2022-11-10T20:07:19.252Z,8.15
2022-11-10T20:10:06.352Z,8.17
2022-11-10T20:12:52.511Z,8.22
2022-11-10T20:15:40.477Z,8.20
2022-11-10T20:18:26.394Z,8.23
2022-11-10T20:21:17.924Z,8.18
2022-11-10T20:24:03.895Z,8.18
2022-11-10T20:26:50.197Z,8.20
2022-11-10T20:29:36.484Z,8.23
2022-11-10T20:32:22.316Z,8.25
2022-11-10T20:35:09.710Z,8.22
2022-11-10T20:37:55.786Z,8.20
2022-11-10T20:41:11.107Z,8.14
2022-11-10T20:43:57.312Z,8.13
2022-11-10T20:46:58.607Z,8.14
2022-11-10T20:49:47.140Z,8.10
2022-11-10T20:52:38.715Z,8.07
2022-11-10T20:55:51.739Z,7.97
2022-11-10T20:58:31.119Z,7.92
2022-11-10T21:01:17.651Z,7.86
2022-11-10T21:04:06.021Z,7.78
2022-11-10T21:06:52.035Z,7.86
2022-11-10T21:09:37.960Z,7.81
2022-11-10T21:12:42.826Z,7.71
2022-11-10T21:15:28.744Z,7.69
2022-11-10T21:18:14.718Z,7.65
2022-11-10T21:21:00.862Z,7.70
2022-11-10T21:23:46.846Z,7.72
2022-11-10T21:26:44.967Z,7.79
2022-11-10T21:29:30.909Z,7.71
2022-11-10T21:32:16.975Z,7.85
2022-11-10T21:35:02.945Z,8.02
2022-11-10T21:37:48.770Z,7.88
2022-11-10T21:40:34.529Z,7.84
2022-11-10T21:43:20.567Z,7.78
2022-11-10T21:46:07.366Z,7.72
2022-11-10T21:48:53.581Z,7.83
2022-11-10T21:51:39.588Z,7.85
2022-11-10T21:54:25.507Z,7.84
2022-11-10T21:57:11.391Z,7.71
2022-11-10T22:00:00.336Z,7.68
2022-11-10T22:02:45.898Z,7.63
2022-11-10T22:05:33.796Z,7.57
2022-11-10T22:08:21.842Z,7.68
2022-11-10T22:11:35.507Z,7.65
2022-11-10T22:14:40.425Z,7.63
2022-11-10T22:17:44.496Z,7.72
2022-11-10T22:20:30.528Z,7.65
2022-11-10T22:23:16.420Z,7.68
2022-11-10T22:26:02.288Z,7.78
2022-11-10T22:28:48.515Z,7.69
2022-11-10T22:31:35.030Z,7.58
2022-11-10T22:34:21.645Z,7.61
2022-11-10T22:37:07.798Z,7.53
2022-11-10T22:40:12.331Z,7.51
2022-11-10T22:43:17.067Z,7.52
2022-11-10T22:46:03.317Z,7.49
2022-11-10T22:48:49.663Z,7.60
2022-11-10T22:51:37.757Z,7.58
2022-11-10T22:54:24.303Z,7.53
2022-11-10T22:57:10.037Z,7.45
2022-11-10T22:59:55.940Z,7.44
2022-11-10T23:02:41.634Z,7.61
2022-11-10T23:05:27.513Z,7.61
2022-11-10T23:08:13.726Z,7.45
2022-11-10T23:11:01.172Z,7.32
2022-11-10T23:13:47.992Z,7.57
2022-11-10T23:16:35.820Z,7.47
2022-11-10T23:19:26.448Z,7.42
2022-11-10T23:22:13.185Z,7.41
2022-11-10T23:25:00.324Z,7.38
2022-11-10T23:27:47.261Z,7.34
2022-11-10T23:30:36.305Z,7.47
2022-11-10T23:33:26.621Z,7.38
2022-11-10T23:36:18.718Z,7.25
2022-11-10T23:39:05.012Z,7.24
2022-11-10T23:41:50.955Z,7.45
2022-11-10T23:44:46.101Z,7.40
2022-11-10T23:47:32.054Z,7.31
2022-11-10T23:50:18.060Z,7.35
2022-11-10T23:53:04.189Z,7.26
2022-11-10T23:56:06.216Z,7.26
2022-11-10T23:58:52.395Z,7.27
